sensor_id;sensor_type;location;lat;lon;timestamp;pressure;altitude;pressure_sealevel;temperature;humidity
13952;BME280;39535;52.192;9.886;2023-04-23T00:01:41;99611.63;;;16.90;79.21
13952;BME280;39535;52.192;9.886;2023-04-23T00:04:10;99604.47;;;16.92;79.39
13952;BME280;39535;52.192;9.886;2023-04-23T00:06:38;99606.28;;;16.92;79.54
13952;BME280;39535;52.192;9.886;2023-04-23T00:09:06;99601.16;;;16.88;79.42
13952;BME280;39535;52.192;9.886;2023-04-23T00:11:36;99604.09;;;16.84;79.79
13952;BME280;39535;52.192;9.886;2023-04-23T00:14:04;99591.75;;;16.84;80.18
13952;BME280;39535;52.192;9.886;2023-04-23T00:16:31;99579.59;;;16.82;80.80
13952;BME280;39535;52.192;9.886;2023-04-23T00:18:57;99580.84;;;16.75;80.36
13952;BME280;39535;52.192;9.886;2023-04-23T00:21:24;99566.75;;;16.76;81.12
13952;BME280;39535;52.192;9.886;2023-04-23T00:23:51;99563.94;;;16.79;80.92
13952;BME280;39535;52.192;9.886;2023-04-23T00:26:19;99565.41;;;16.68;81.16
13952;BME280;39535;52.192;9.886;2023-04-23T00:28:45;99556.50;;;16.71;81.28
13952;BME280;39535;52.192;9.886;2023-04-23T00:31:13;99555.91;;;16.66;81.72
13952;BME280;39535;52.192;9.886;2023-04-23T00:33:39;99542.06;;;16.62;82.14
13952;BME280;39535;52.192;9.886;2023-04-23T00:36:07;99538.84;;;16.57;82.49
13952;BME280;39535;52.192;9.886;2023-04-23T00:38:33;99516.25;;;16.53;83.74
13952;BME280;39535;52.192;9.886;2023-04-23T00:40:59;99514.53;;;16.52;83.03
13952;BME280;39535;52.192;9.886;2023-04-23T00:43:26;99515.66;;;16.48;82.59
13952;BME280;39535;52.192;9.886;2023-04-23T00:45:52;99502.50;;;16.48;83.76
13952;BME280;39535;52.192;9.886;2023-04-23T00:48:23;99484.34;;;16.43;84.15
13952;BME280;39535;52.192;9.886;2023-04-23T00:50:57;99466.50;;;16.33;85.37
13952;BME280;39535;52.192;9.886;2023-04-23T00:53:23;99475.94;;;16.37;84.82
13952;BME280;39535;52.192;9.886;2023-04-23T00:55:52;99476.97;;;16.34;84.92
13952;BME280;39535;52.192;9.886;2023-04-23T00:58:19;99481.38;;;16.34;84.64
13952;BME280;39535;52.192;9.886;2023-04-23T01:00:46;99487.66;;;16.31;84.34
13952;BME280;39535;52.192;9.886;2023-04-23T01:03:15;99501.28;;;16.23;84.00
13952;BME280;39535;52.192;9.886;2023-04-23T01:05:44;99508.91;;;16.28;83.15
13952;BME280;39535;52.192;9.886;2023-04-23T01:08:13;99530.34;;;16.22;82.54
13952;BME280;39535;52.192;9.886;2023-04-23T01:10:40;99538.91;;;16.25;83.03
13952;BME280;39535;52.192;9.886;2023-04-23T01:13:07;99528.56;;;16.22;83.15
13952;BME280;39535;52.192;9.886;2023-04-23T01:15:34;99531.34;;;16.19;83.42
13952;BME280;39535;52.192;9.886;2023-04-23T01:18:01;99513.94;;;16.17;83.94
13952;BME280;39535;52.192;9.886;2023-04-23T01:20:28;99516.84;;;16.12;83.56
13952;BME280;39535;52.192;9.886;2023-04-23T01:22:56;99518.44;;;16.15;83.35
13952;BME280;39535;52.192;9.886;2023-04-23T01:25:22;99533.50;;;16.13;83.45
13952;BME280;39535;52.192;9.886;2023-04-23T01:27:49;99525.59;;;16.13;83.00
13952;BME280;39535;52.192;9.886;2023-04-23T01:30:16;99525.09;;;16.06;83.58
13952;BME280;39535;52.192;9.886;2023-04-23T01:32:43;99522.63;;;16.03;84.06
13952;BME280;39535;52.192;9.886;2023-04-23T01:35:09;99515.06;;;15.97;84.11
13952;BME280;39535;52.192;9.886;2023-04-23T01:37:37;99521.28;;;15.96;84.19
13952;BME280;39535;52.192;9.886;2023-04-23T01:40:07;99517.91;;;15.78;83.90
13952;BME280;39535;52.192;9.886;2023-04-23T01:42:33;99529.56;;;15.72;83.38
13952;BME280;39535;52.192;9.886;2023-04-23T01:45:01;99534.22;;;15.51;83.48
13952;BME280;39535;52.192;9.886;2023-04-23T01:47:27;99533.72;;;15.60;83.26
13952;BME280;39535;52.192;9.886;2023-04-23T01:49:54;99539.66;;;15.64;82.82
13952;BME280;39535;52.192;9.886;2023-04-23T01:52:20;99573.34;;;15.57;81.86
13952;BME280;39535;52.192;9.886;2023-04-23T01:54:47;99611.00;;;15.24;81.48
13952;BME280;39535;52.192;9.886;2023-04-23T01:57:14;99602.31;;;15.40;81.67
13952;BME280;39535;52.192;9.886;2023-04-23T01:59:47;99615.63;;;15.37;81.28
13952;BME280;39535;52.192;9.886;2023-04-23T02:02:15;99608.44;;;15.40;81.95
13952;BME280;39535;52.192;9.886;2023-04-23T02:04:43;99618.44;;;15.49;81.39
13952;BME280;39535;52.192;9.886;2023-04-23T02:07:10;99622.72;;;15.52;81.25
13952;BME280;39535;52.192;9.886;2023-04-23T02:09:36;99607.63;;;15.22;83.32
13952;BME280;39535;52.192;9.886;2023-04-23T02:12:04;99555.13;;;14.68;86.07
13952;BME280;39535;52.192;9.886;2023-04-23T02:14:31;99501.81;;;14.49;87.73
13952;BME280;39535;52.192;9.886;2023-04-23T02:16:58;99454.16;;;14.39;88.67
13952;BME280;39535;52.192;9.886;2023-04-23T02:19:24;99448.09;;;14.02;89.37
13952;BME280;39535;52.192;9.886;2023-04-23T02:21:52;99392.00;;;13.87;92.34
13952;BME280;39535;52.192;9.886;2023-04-23T02:24:18;99361.97;;;13.93;92.48
13952;BME280;39535;52.192;9.886;2023-04-23T02:26:44;99379.56;;;13.91;91.92
13952;BME280;39535;52.192;9.886;2023-04-23T02:29:13;99371.31;;;13.81;92.54
13952;BME280;39535;52.192;9.886;2023-04-23T02:31:42;99354.34;;;13.88;93.28
13952;BME280;39535;52.192;9.886;2023-04-23T02:34:09;99370.94;;;13.72;92.69
13952;BME280;39535;52.192;9.886;2023-04-23T02:36:35;99371.16;;;13.84;92.62
13952;BME280;39535;52.192;9.886;2023-04-23T02:39:02;99387.22;;;13.96;92.34
13952;BME280;39535;52.192;9.886;2023-04-23T02:41:28;99398.31;;;14.01;92.23
13952;BME280;39535;52.192;9.886;2023-04-23T02:43:55;99404.53;;;14.17;91.97
13952;BME280;39535;52.192;9.886;2023-04-23T02:46:21;99426.75;;;14.27;91.11
13952;BME280;39535;52.192;9.886;2023-04-23T02:48:49;99425.88;;;13.92;92.01
13952;BME280;39535;52.192;9.886;2023-04-23T02:51:15;99419.78;;;14.09;92.44
13952;BME280;39535;52.192;9.886;2023-04-23T02:53:42;99433.31;;;14.01;92.45
13952;BME280;39535;52.192;9.886;2023-04-23T02:56:08;99395.00;;;13.97;94.58
13952;BME280;39535;52.192;9.886;2023-04-23T02:58:35;99406.28;;;14.17;94.11
13952;BME280;39535;52.192;9.886;2023-04-23T03:01:01;99397.63;;;14.32;93.56
13952;BME280;39535;52.192;9.886;2023-04-23T03:03:29;99426.25;;;14.37;92.03
13952;BME280;39535;52.192;9.886;2023-04-23T03:06:00;99448.59;;;14.45;91.14
13952;BME280;39535;52.192;9.886;2023-04-23T03:08:27;99469.34;;;14.50;90.70
13952;BME280;39535;52.192;9.886;2023-04-23T03:10:53;99489.34;;;14.53;89.59
13952;BME280;39535;52.192;9.886;2023-04-23T03:13:20;99514.28;;;14.63;89.32
13952;BME280;39535;52.192;9.886;2023-04-23T03:15:46;99530.56;;;14.69;89.12
13952;BME280;39535;52.192;9.886;2023-04-23T03:18:13;99536.47;;;14.75;88.40
13952;BME280;39535;52.192;9.886;2023-04-23T03:20:39;99561.66;;;14.79;87.80
13952;BME280;39535;52.192;9.886;2023-04-23T03:23:11;99567.34;;;14.69;88.77
13952;BME280;39535;52.192;9.886;2023-04-23T03:25:37;99557.47;;;14.75;88.59
13952;BME280;39535;52.192;9.886;2023-04-23T03:28:03;99554.47;;;14.65;89.05
13952;BME280;39535;52.192;9.886;2023-04-23T03:30:30;99535.94;;;14.13;91.11
13952;BME280;39535;52.192;9.886;2023-04-23T03:32:57;99495.31;;;14.21;92.07
13952;BME280;39535;52.192;9.886;2023-04-23T03:35:24;99488.50;;;14.17;92.16
13952;BME280;39535;52.192;9.886;2023-04-23T03:37:51;99476.97;;;14.02;92.21
13952;BME280;39535;52.192;9.886;2023-04-23T03:40:22;99456.72;;;13.50;94.25
13952;BME280;39535;52.192;9.886;2023-04-23T03:42:48;99421.28;;;13.42;96.02
13952;BME280;39535;52.192;9.886;2023-04-23T03:45:15;99375.56;;;12.71;99.63
13952;BME280;39535;52.192;9.886;2023-04-23T03:47:41;99332.75;;;12.91;100.00
13952;BME280;39535;52.192;9.886;2023-04-23T03:50:08;99328.16;;;12.78;100.00
13952;BME280;39535;52.192;9.886;2023-04-23T03:52:36;99325.03;;;12.69;100.00
13952;BME280;39535;52.192;9.886;2023-04-23T03:55:03;99306.53;;;12.35;100.00
13952;BME280;39535;52.192;9.886;2023-04-23T03:57:31;99281.19;;;12.16;100.00
13952;BME280;39535;52.192;9.886;2023-04-23T03:59:58;99292.31;;;12.01;100.00
13952;BME280;39535;52.192;9.886;2023-04-23T04:02:28;99290.63;;;12.00;100.00
13952;BME280;39535;52.192;9.886;2023-04-23T04:04:55;99307.59;;;12.10;100.00
13952;BME280;39535;52.192;9.886;2023-04-23T04:07:22;99324.28;;;12.07;100.00
13952;BME280;39535;52.192;9.886;2023-04-23T04:09:48;99331.53;;;12.01;100.00
13952;BME280;39535;52.192;9.886;2023-04-23T04:12:17;99336.38;;;12.10;100.00
13952;BME280;39535;52.192;9.886;2023-04-23T04:14:44;99353.66;;;12.14;100.00
13952;BME280;39535;52.192;9.886;2023-04-23T04:17:11;99375.34;;;12.37;100.00
13952;BME280;39535;52.192;9.886;2023-04-23T04:19:40;99398.00;;;12.38;100.00
13952;BME280;39535;52.192;9.886;2023-04-23T04:22:06;99420.75;;;12.56;100.00
13952;BME280;39535;52.192;9.886;2023-04-23T04:24:34;99445.69;;;12.44;100.00
13952;BME280;39535;52.192;9.886;2023-04-23T04:27:00;99458.59;;;12.49;100.00
13952;BME280;39535;52.192;9.886;2023-04-23T04:29:27;99465.50;;;12.29;100.00
13952;BME280;39535;52.192;9.886;2023-04-23T04:31:55;99465.69;;;12.25;100.00
13952;BME280;39535;52.192;9.886;2023-04-23T04:34:22;99465.56;;;12.48;100.00
13952;BME280;39535;52.192;9.886;2023-04-23T04:36:50;99470.22;;;12.42;100.00
13952;BME280;39535;52.192;9.886;2023-04-23T04:39:19;99477.81;;;12.68;100.00
13952;BME280;39535;52.192;9.886;2023-04-23T04:41:46;99511.00;;;12.68;100.00
13952;BME280;39535;52.192;9.886;2023-04-23T04:44:12;99527.63;;;12.87;99.06
13952;BME280;39535;52.192;9.886;2023-04-23T04:46:40;99557.22;;;12.69;98.52
13952;BME280;39535;52.192;9.886;2023-04-23T04:49:09;99562.78;;;12.61;98.27
13952;BME280;39535;52.192;9.886;2023-04-23T04:51:40;99561.16;;;12.15;99.61
13952;BME280;39535;52.192;9.886;2023-04-23T04:54:06;99522.59;;;11.98;100.00
13952;BME280;39535;52.192;9.886;2023-04-23T04:56:33;99518.91;;;12.03;100.00
13952;BME280;39535;52.192;9.886;2023-04-23T04:59:00;99525.81;;;12.04;100.00
13952;BME280;39535;52.192;9.886;2023-04-23T05:01:27;99524.59;;;11.91;100.00
13952;BME280;39535;52.192;9.886;2023-04-23T05:03:54;99525.84;;;11.81;100.00
13952;BME280;39535;52.192;9.886;2023-04-23T05:06:21;99528.28;;;11.85;100.00
13952;BME280;39535;52.192;9.886;2023-04-23T05:08:48;99534.22;;;11.90;100.00
13952;BME280;39535;52.192;9.886;2023-04-23T05:11:15;99531.50;;;11.94;100.00
13952;BME280;39535;52.192;9.886;2023-04-23T05:13:41;99522.59;;;11.98;100.00
13952;BME280;39535;52.192;9.886;2023-04-23T05:16:07;99541.56;;;12.03;100.00
13952;BME280;39535;52.192;9.886;2023-04-23T05:18:35;99555.22;;;12.11;100.00
13952;BME280;39535;52.192;9.886;2023-04-23T05:21:01;99554.03;;;12.18;100.00
13952;BME280;39535;52.192;9.886;2023-04-23T05:23:29;99550.91;;;11.86;100.00
13952;BME280;39535;52.192;9.886;2023-04-23T05:25:55;99542.69;;;11.73;100.00
13952;BME280;39535;52.192;9.886;2023-04-23T05:28:23;99541.69;;;12.00;100.00
13952;BME280;39535;52.192;9.886;2023-04-23T05:30:50;99531.91;;;11.81;100.00
13952;BME280;39535;52.192;9.886;2023-04-23T05:33:17;99534.59;;;12.03;100.00
13952;BME280;39535;52.192;9.886;2023-04-23T05:35:43;99551.31;;;12.21;100.00
13952;BME280;39535;52.192;9.886;2023-04-23T05:38:10;99574.84;;;12.43;99.23
13952;BME280;39535;52.192;9.886;2023-04-23T05:40:37;99594.19;;;12.61;98.35
13952;BME280;39535;52.192;9.886;2023-04-23T05:43:04;99621.38;;;12.79;96.80
13952;BME280;39535;52.192;9.886;2023-04-23T05:45:36;99651.25;;;12.96;96.12
13952;BME280;39535;52.192;9.886;2023-04-23T05:48:07;99666.66;;;12.83;95.71
13952;BME280;39535;52.192;9.886;2023-04-23T05:50:34;99662.47;;;12.99;96.03
13952;BME280;39535;52.192;9.886;2023-04-23T05:53:00;99678.53;;;13.12;95.41
13952;BME280;39535;52.192;9.886;2023-04-23T05:55:27;99688.56;;;13.23;94.89
13952;BME280;39535;52.192;9.886;2023-04-23T05:57:58;99681.53;;;13.03;96.19
13952;BME280;39535;52.192;9.886;2023-04-23T06:00:27;99674.16;;;13.13;95.68
13952;BME280;39535;52.192;9.886;2023-04-23T06:02:54;99687.59;;;13.25;95.75
13952;BME280;39535;52.192;9.886;2023-04-23T06:05:26;99716.91;;;13.35;94.00
13952;BME280;39535;52.192;9.886;2023-04-23T06:07:55;99726.50;;;13.36;93.53
13952;BME280;39535;52.192;9.886;2023-04-23T06:10:27;99780.31;;;13.23;90.92
13952;BME280;39535;52.192;9.886;2023-04-23T06:12:54;99819.31;;;13.08;89.72
13952;BME280;39535;52.192;9.886;2023-04-23T06:15:28;99854.00;;;12.68;88.80
13952;BME280;39535;52.192;9.886;2023-04-23T06:17:57;99866.06;;;12.48;89.18
13952;BME280;39535;52.192;9.886;2023-04-23T06:20:24;99860.31;;;12.39;88.91
13952;BME280;39535;52.192;9.886;2023-04-23T06:22:50;99848.25;;;12.58;89.24
13952;BME280;39535;52.192;9.886;2023-04-23T06:25:18;99838.38;;;12.43;89.38
13952;BME280;39535;52.192;9.886;2023-04-23T06:27:47;99842.56;;;12.23;89.70
13952;BME280;39535;52.192;9.886;2023-04-23T06:30:13;99825.19;;;12.21;90.85
13952;BME280;39535;52.192;9.886;2023-04-23T06:32:41;99800.38;;;12.07;91.88
13952;BME280;39535;52.192;9.886;2023-04-23T06:35:08;99771.59;;;12.07;93.01
13952;BME280;39535;52.192;9.886;2023-04-23T06:37:34;99740.72;;;11.94;94.52
13952;BME280;39535;52.192;9.886;2023-04-23T06:40:08;99696.53;;;11.84;96.05
13952;BME280;39535;52.192;9.886;2023-04-23T06:42:39;99659.56;;;11.95;97.02
13952;BME280;39535;52.192;9.886;2023-04-23T06:45:06;99625.47;;;12.20;97.57
13952;BME280;39535;52.192;9.886;2023-04-23T06:47:32;99621.19;;;12.41;96.94
13952;BME280;39535;52.192;9.886;2023-04-23T06:50:03;99635.78;;;12.69;96.29
13952;BME280;39535;52.192;9.886;2023-04-23T06:52:32;99651.84;;;12.38;96.33
13952;BME280;39535;52.192;9.886;2023-04-23T06:54:59;99657.22;;;12.57;95.49
13952;BME280;39535;52.192;9.886;2023-04-23T06:57:27;99667.81;;;12.76;94.36
13952;BME280;39535;52.192;9.886;2023-04-23T06:59:53;99693.47;;;12.88;93.54
13952;BME280;39535;52.192;9.886;2023-04-23T07:02:21;99706.56;;;13.10;92.82
13952;BME280;39535;52.192;9.886;2023-04-23T07:04:48;99729.84;;;12.74;92.50
13952;BME280;39535;52.192;9.886;2023-04-23T07:07:18;99714.81;;;12.79;93.14
13952;BME280;39535;52.192;9.886;2023-04-23T07:09:48;99712.97;;;13.03;92.76
13952;BME280;39535;52.192;9.886;2023-04-23T07:12:15;99721.81;;;13.22;92.80
13952;BME280;39535;52.192;9.886;2023-04-23T07:14:43;99729.25;;;13.11;92.21
13952;BME280;39535;52.192;9.886;2023-04-23T07:17:15;99719.97;;;13.24;91.92
13952;BME280;39535;52.192;9.886;2023-04-23T07:19:44;99725.72;;;13.34;91.16
13952;BME280;39535;52.192;9.886;2023-04-23T07:22:20;99767.13;;;13.46;89.50
13952;BME280;39535;52.192;9.886;2023-04-23T07:24:49;99811.31;;;13.56;86.98
13952;BME280;39535;52.192;9.886;2023-04-23T07:27:19;99836.19;;;13.67;87.04
13952;BME280;39535;52.192;9.886;2023-04-23T07:29:54;99872.84;;;13.69;85.17
13952;BME280;39535;52.192;9.886;2023-04-23T07:32:23;99957.59;;;13.47;80.29
13952;BME280;39535;52.192;9.886;2023-04-23T07:34:53;100002.91;;;13.51;79.82
13952;BME280;39535;52.192;9.886;2023-04-23T07:37:22;100079.66;;;13.33;76.76
13952;BME280;39535;52.192;9.886;2023-04-23T07:39:56;100083.53;;;13.46;79.79
13952;BME280;39535;52.192;9.886;2023-04-23T07:42:27;100085.88;;;13.28;78.48
13952;BME280;39535;52.192;9.886;2023-04-23T07:44:55;100106.84;;;13.03;79.27
13952;BME280;39535;52.192;9.886;2023-04-23T07:47:24;100060.69;;;13.24;81.09
13952;BME280;39535;52.192;9.886;2023-04-23T07:50:02;100023.34;;;13.43;81.73
13952;BME280;39535;52.192;9.886;2023-04-23T07:52:35;99985.31;;;13.55;83.30
13952;BME280;39535;52.192;9.886;2023-04-23T07:55:03;99966.56;;;13.42;79.78
13952;BME280;39535;52.192;9.886;2023-04-23T07:57:32;100008.06;;;13.54;79.38
13952;BME280;39535;52.192;9.886;2023-04-23T08:00:10;100030.16;;;13.70;79.34
13952;BME280;39535;52.192;9.886;2023-04-23T08:02:37;100073.41;;;13.60;76.41
13952;BME280;39535;52.192;9.886;2023-04-23T08:05:07;100095.69;;;13.72;78.04
13952;BME280;39535;52.192;9.886;2023-04-23T08:07:33;100056.19;;;13.75;79.30
13952;BME280;39535;52.192;9.886;2023-04-23T08:10:00;100113.75;;;13.56;75.18
13952;BME280;39535;52.192;9.886;2023-04-23T08:12:31;100085.84;;;13.54;77.61
13952;BME280;39535;52.192;9.886;2023-04-23T08:15:00;100067.81;;;13.46;78.76
13952;BME280;39535;52.192;9.886;2023-04-23T08:17:26;100026.84;;;13.65;79.16
13952;BME280;39535;52.192;9.886;2023-04-23T08:20:00;100048.94;;;13.60;78.28
13952;BME280;39535;52.192;9.886;2023-04-23T08:22:29;100011.81;;;13.93;80.51
13952;BME280;39535;52.192;9.886;2023-04-23T08:25:06;100094.94;;;13.92;73.46
13952;BME280;39535;52.192;9.886;2023-04-23T08:27:33;100141.97;;;13.73;74.42
13952;BME280;39535;52.192;9.886;2023-04-23T08:30:03;100135.19;;;13.67;74.73
13952;BME280;39535;52.192;9.886;2023-04-23T08:32:32;100121.91;;;13.72;75.22
13952;BME280;39535;52.192;9.886;2023-04-23T08:35:02;100143.94;;;13.68;73.50
13952;BME280;39535;52.192;9.886;2023-04-23T08:37:29;100153.72;;;13.63;74.93
13952;BME280;39535;52.192;9.886;2023-04-23T08:39:59;100168.56;;;13.64;72.07
13952;BME280;39535;52.192;9.886;2023-04-23T08:42:31;100228.28;;;13.81;70.86
13952;BME280;39535;52.192;9.886;2023-04-23T08:45:07;100270.69;;;13.94;69.06
13952;BME280;39535;52.192;9.886;2023-04-23T08:47:49;100335.28;;;13.98;65.61
13952;BME280;39535;52.192;9.886;2023-04-23T08:50:22;100367.31;;;14.07;66.26
13952;BME280;39535;52.192;9.886;2023-04-23T08:52:52;100403.59;;;14.21;67.55
13952;BME280;39535;52.192;9.886;2023-04-23T08:55:40;100390.16;;;14.29;63.72
13952;BME280;39535;52.192;9.886;2023-04-23T08:58:10;100447.03;;;14.30;64.97
13952;BME280;39535;52.192;9.886;2023-04-23T09:00:45;100476.34;;;14.18;65.74
13952;BME280;39535;52.192;9.886;2023-04-23T09:03:28;100449.75;;;14.27;65.35
13952;BME280;39535;52.192;9.886;2023-04-23T09:05:59;100445.84;;;14.39;64.47
13952;BME280;39535;52.192;9.886;2023-04-23T09:08:31;100494.47;;;14.25;62.15
13952;BME280;39535;52.192;9.886;2023-04-23T09:11:00;100524.34;;;14.21;62.65
13952;BME280;39535;52.192;9.886;2023-04-23T09:13:41;100510.91;;;14.30;63.00
13952;BME280;39535;52.192;9.886;2023-04-23T09:16:23;100489.47;;;14.43;64.22
13952;BME280;39535;52.192;9.886;2023-04-23T09:19:19;100481.41;;;14.49;60.98
13952;BME280;39535;52.192;9.886;2023-04-23T09:21:53;100506.69;;;14.52;62.33
13952;BME280;39535;52.192;9.886;2023-04-23T09:24:25;100484.28;;;14.68;63.29
13952;BME280;39535;52.192;9.886;2023-04-23T09:26:56;100494.03;;;14.64;59.43
13952;BME280;39535;52.192;9.886;2023-04-23T09:29:26;100531.22;;;14.79;60.13
13952;BME280;39535;52.192;9.886;2023-04-23T09:35:01;100558.13;;;14.85;59.03
13952;BME280;39535;52.192;9.886;2023-04-23T09:37:28;100537.06;;;14.87;58.73
13952;BME280;39535;52.192;9.886;2023-04-23T09:40:22;100535.75;;;14.99;59.49
13952;BME280;39535;52.192;9.886;2023-04-23T09:42:58;100557.19;;;15.12;59.32
13952;BME280;39535;52.192;9.886;2023-04-23T09:45:24;100542.69;;;15.25;59.82
13952;BME280;39535;52.192;9.886;2023-04-23T09:47:53;100531.75;;;15.12;58.82
13952;BME280;39535;52.192;9.886;2023-04-23T09:50:30;100543.88;;;15.16;61.13
13952;BME280;39535;52.192;9.886;2023-04-23T09:52:57;100467.75;;;15.37;58.68
13952;BME280;39535;52.192;9.886;2023-04-23T09:55:28;100519.09;;;15.23;53.97
13952;BME280;39535;52.192;9.886;2023-04-23T09:57:55;100611.47;;;15.38;56.12
13952;BME280;39535;52.192;9.886;2023-04-23T10:00:21;100603.03;;;15.53;58.07
13952;BME280;39535;52.192;9.886;2023-04-23T10:02:59;100566.38;;;15.72;58.97
13952;BME280;39535;52.192;9.886;2023-04-23T10:05:31;100545.06;;;15.80;55.73
13952;BME280;39535;52.192;9.886;2023-04-23T10:07:57;100583.78;;;15.76;54.49
13952;BME280;39535;52.192;9.886;2023-04-23T10:10:24;100615.38;;;15.76;54.68
13952;BME280;39535;52.192;9.886;2023-04-23T10:12:52;100626.28;;;15.89;56.07
13952;BME280;39535;52.192;9.886;2023-04-23T10:15:19;100610.09;;;16.00;56.06
13952;BME280;39535;52.192;9.886;2023-04-23T10:17:45;100601.53;;;16.17;57.20
13952;BME280;39535;52.192;9.886;2023-04-23T10:20:15;100568.88;;;16.21;55.64
13952;BME280;39535;52.192;9.886;2023-04-23T10:22:43;100584.25;;;16.32;57.83
13952;BME280;39535;52.192;9.886;2023-04-23T10:25:11;100523.75;;;16.51;58.82
13952;BME280;39535;52.192;9.886;2023-04-23T10:27:39;100540.53;;;16.27;54.73
13952;BME280;39535;52.192;9.886;2023-04-23T10:30:08;100569.72;;;16.43;56.62
13952;BME280;39535;52.192;9.886;2023-04-23T10:32:36;100530.84;;;16.48;55.38
13952;BME280;39535;52.192;9.886;2023-04-23T10:35:03;100574.59;;;16.53;55.92
13952;BME280;39535;52.192;9.886;2023-04-23T10:37:31;100585.28;;;16.50;54.12
13952;BME280;39535;52.192;9.886;2023-04-23T10:40:01;100593.34;;;16.45;54.78
13952;BME280;39535;52.192;9.886;2023-04-23T10:42:30;100617.66;;;16.53;54.16
13952;BME280;39535;52.192;9.886;2023-04-23T10:44:57;100612.50;;;16.71;54.22
13952;BME280;39535;52.192;9.886;2023-04-23T10:47:23;100608.13;;;16.71;51.49
13952;BME280;39535;52.192;9.886;2023-04-23T10:49:50;100655.56;;;16.93;52.59
13952;BME280;39535;52.192;9.886;2023-04-23T10:52:17;100667.75;;;16.96;51.81
13952;BME280;39535;52.192;9.886;2023-04-23T10:54:51;100683.53;;;16.97;51.70
13952;BME280;39535;52.192;9.886;2023-04-23T10:57:21;100681.25;;;16.88;52.67
13952;BME280;39535;52.192;9.886;2023-04-23T10:59:53;100640.31;;;17.00;53.53
13952;BME280;39535;52.192;9.886;2023-04-23T11:02:23;100641.66;;;16.90;53.76
13952;BME280;39535;52.192;9.886;2023-04-23T11:04:53;100612.84;;;17.05;54.92
13952;BME280;39535;52.192;9.886;2023-04-23T11:07:25;100601.19;;;17.11;53.70
13952;BME280;39535;52.192;9.886;2023-04-23T11:09:53;100568.47;;;17.15;52.27
13952;BME280;39535;52.192;9.886;2023-04-23T11:12:31;100582.22;;;17.22;51.48
13952;BME280;39535;52.192;9.886;2023-04-23T11:14:58;100604.16;;;17.43;52.44
13952;BME280;39535;52.192;9.886;2023-04-23T11:20:22;100616.69;;;17.58;50.89
13952;BME280;39535;52.192;9.886;2023-04-23T11:22:50;100648.19;;;17.82;50.59
13952;BME280;39535;52.192;9.886;2023-04-23T11:25:21;100656.25;;;18.17;50.29
13952;BME280;39535;52.192;9.886;2023-04-23T11:27:49;100666.94;;;18.52;49.09
13952;BME280;39535;52.192;9.886;2023-04-23T11:30:18;100663.09;;;19.13;49.06
13952;BME280;39535;52.192;9.886;2023-04-23T11:32:46;100710.84;;;19.10;45.55
13952;BME280;39535;52.192;9.886;2023-04-23T11:35:13;100759.84;;;19.88;44.48
13952;BME280;39535;52.192;9.886;2023-04-23T11:37:41;100810.81;;;19.22;45.90
13952;BME280;39535;52.192;9.886;2023-04-23T11:40:09;100807.84;;;20.15;44.31
13952;BME280;39535;52.192;9.886;2023-04-23T11:42:43;100810.44;;;21.90;43.22
13952;BME280;39535;52.192;9.886;2023-04-23T11:45:15;100868.91;;;22.64;41.94
13952;BME280;39535;52.192;9.886;2023-04-23T11:47:42;100921.56;;;22.44;40.13
13952;BME280;39535;52.192;9.886;2023-04-23T11:50:09;101003.38;;;20.97;41.85
13952;BME280;39535;52.192;9.886;2023-04-23T11:52:36;100974.47;;;20.40;45.02
13952;BME280;39535;52.192;9.886;2023-04-23T11:55:04;100902.63;;;20.28;45.48
13952;BME280;39535;52.192;9.886;2023-04-23T11:57:34;100861.69;;;20.00;45.48
13952;BME280;39535;52.192;9.886;2023-04-23T12:00:10;100802.22;;;20.21;45.87
13952;BME280;39535;52.192;9.886;2023-04-23T12:02:36;100778.50;;;20.36;45.68
13952;BME280;39535;52.192;9.886;2023-04-23T12:05:04;100768.53;;;20.73;45.57
13952;BME280;39535;52.192;9.886;2023-04-23T12:07:31;100785.63;;;20.02;44.60
13952;BME280;39535;52.192;9.886;2023-04-23T12:09:57;100774.00;;;19.87;44.58
13952;BME280;39535;52.192;9.886;2023-04-23T12:12:31;100766.63;;;20.10;45.99
13952;BME280;39535;52.192;9.886;2023-04-23T12:15:02;100749.66;;;19.80;44.52
13952;BME280;39535;52.192;9.886;2023-04-23T12:17:31;100776.56;;;19.36;47.11
13952;BME280;39535;52.192;9.886;2023-04-23T12:19:57;100721.06;;;19.17;48.96
13952;BME280;39535;52.192;9.886;2023-04-23T12:22:25;100674.84;;;18.34;50.13
13952;BME280;39535;52.192;9.886;2023-04-23T12:24:52;100624.84;;;18.11;50.89
13952;BME280;39535;52.192;9.886;2023-04-23T12:27:19;100554.06;;;18.17;51.81
13952;BME280;39535;52.192;9.886;2023-04-23T12:29:47;100494.66;;;18.26;52.52
13952;BME280;39535;52.192;9.886;2023-04-23T12:32:14;100460.22;;;18.28;53.36
13952;BME280;39535;52.192;9.886;2023-04-23T12:34:52;100411.19;;;18.39;53.14
13952;BME280;39535;52.192;9.886;2023-04-23T12:37:23;100402.81;;;18.47;52.59
13952;BME280;39535;52.192;9.886;2023-04-23T12:39:49;100444.97;;;18.33;51.45
13952;BME280;39535;52.192;9.886;2023-04-23T12:42:17;100426.59;;;18.47;51.59
13952;BME280;39535;52.192;9.886;2023-04-23T12:44:43;100434.28;;;18.69;51.38
13952;BME280;39535;52.192;9.886;2023-04-23T12:47:10;100427.81;;;19.24;50.42
13952;BME280;39535;52.192;9.886;2023-04-23T12:49:40;100462.41;;;20.00;47.90
13952;BME280;39535;52.192;9.886;2023-04-23T12:52:09;100560.91;;;20.23;45.09
13952;BME280;39535;52.192;9.886;2023-04-23T12:54:36;100646.00;;;20.18;43.21
13952;BME280;39535;52.192;9.886;2023-04-23T12:57:05;100717.59;;;20.50;43.62
13952;BME280;39535;52.192;9.886;2023-04-23T12:59:32;100734.75;;;21.07;45.26
13952;BME280;39535;52.192;9.886;2023-04-23T13:01:59;100737.09;;;21.57;43.42
13952;BME280;39535;52.192;9.886;2023-04-23T13:04:26;100783.94;;;21.28;41.41
13952;BME280;39535;52.192;9.886;2023-04-23T13:06:53;100811.22;;;21.62;42.26
13952;BME280;39535;52.192;9.886;2023-04-23T13:09:21;100825.56;;;21.74;42.30